Time;durP1;ratioP1;P1;durP2;ratioP2;P2;SDS_P1;SDS_P2;PMS_P1;PMS_P2;Temp;Humidity;BMP_temperature;BMP_pressure;BME280_temperature;BME280_humidity;BME280_pressure;Samples;Min_cycle;Max_cycle;Signal;HPM_P1;HPM_P2
2023/07/15 00:01:44;;;;;;;31.57;16.23;;;;;;;;;;6193183;28;20695;-59
2023/07/15 00:04:44;;;;;;;29.93;16.97;;;;;;;;;;6196365;28;20119;-58
2023/07/15 00:07:45;;;;;;;28.30;16.40;;;;;;;;;;6199090;28;20038;-59
2023/07/15 00:10:46;;;;;;;27.02;16.92;;;;;;;;;;6197839;28;20092;-59
2023/07/15 00:13:47;;;;;;;29.30;17.10;;;;;;;;;;6196602;28;20054;-57
2023/07/15 00:16:49;;;;;;;30.57;17.03;;;;;;;;;;6196221;28;20104;-56
2023/07/15 00:19:50;;;;;;;27.20;17.67;;;;;;;;;;6194360;28;20046;-59
2023/07/15 00:22:51;;;;;;;30.70;17.17;;;;;;;;;;6196921;28;20066;-59
2023/07/15 00:25:53;;;;;;;30.80;17.37;;;;;;;;;;6198249;28;20041;-59
2023/07/15 00:28:55;;;;;;;31.73;17.75;;;;;;;;;;6195668;28;20393;-59
2023/07/15 00:31:57;;;;;;;37.90;17.90;;;;;;;;;;6191710;28;20046;-58
2023/07/15 00:34:58;;;;;;;28.52;17.75;;;;;;;;;;6198983;28;20056;-59
2023/07/15 00:37:58;;;;;;;29.40;17.57;;;;;;;;;;6196371;28;20042;-58
2023/07/15 00:41:00;;;;;;;33.10;18.45;;;;;;;;;;6196199;28;20531;-59
2023/07/15 00:44:03;;;;;;;32.42;17.90;;;;;;;;;;6198674;28;20201;-58
2023/07/15 00:47:14;;;;;;;29.60;18.20;;;;;;;;;;6192019;28;20140;-57
2023/07/15 00:50:15;;;;;;;34.83;18.27;;;;;;;;;;6188666;28;20042;-58
2023/07/15 00:53:16;;;;;;;31.33;18.60;;;;;;;;;;6196549;28;20393;-59
2023/07/15 00:56:16;;;;;;;36.17;18.23;;;;;;;;;;6193833;28;20241;-57
2023/07/15 00:59:17;;;;;;;35.10;18.93;;;;;;;;;;6193263;28;20034;-59
2023/07/15 01:02:19;;;;;;;29.57;17.90;;;;;;;;;;6197748;28;20404;-59
2023/07/15 01:05:20;;;;;;;34.53;17.55;;;;;;;;;;6194860;28;20514;-56
2023/07/15 01:08:21;;;;;;;30.43;18.03;;;;;;;;;;6194398;28;20058;-58
2023/07/15 01:11:21;;;;;;;30.50;18.90;;;;;;;;;;6193235;28;20386;-59
2023/07/15 01:14:22;;;;;;;32.53;19.67;;;;;;;;;;6197635;28;20062;-58
2023/07/15 01:17:23;;;;;;;33.70;19.10;;;;;;;;;;6195131;28;20050;-58
2023/07/15 01:20:25;;;;;;;35.73;20.43;;;;;;;;;;6191332;28;20053;-59
2023/07/15 01:23:29;;;;;;;31.73;18.45;;;;;;;;;;6197391;28;20042;-57
2023/07/15 01:26:31;;;;;;;34.28;18.45;;;;;;;;;;6194822;28;20095;-58
2023/07/15 01:29:32;;;;;;;35.58;19.08;;;;;;;;;;6194083;28;20517;-58
2023/07/15 01:32:33;;;;;;;38.30;19.50;;;;;;;;;;6197445;28;20136;-60
2023/07/15 01:35:35;;;;;;;35.03;19.93;;;;;;;;;;6198628;28;20068;-58
2023/07/15 01:38:37;;;;;;;36.10;19.92;;;;;;;;;;6197576;28;20050;-56
2023/07/15 01:41:38;;;;;;;30.35;19.05;;;;;;;;;;6203784;28;20034;-58
2023/07/15 01:44:38;;;;;;;29.67;20.30;;;;;;;;;;6199435;28;20100;-57
2023/07/15 01:47:39;;;;;;;37.40;19.20;;;;;;;;;;6198925;28;20046;-58
2023/07/15 01:50:39;;;;;;;29.60;18.50;;;;;;;;;;6197964;28;20077;-57
2023/07/15 01:53:40;;;;;;;35.57;19.67;;;;;;;;;;6201176;28;20141;-58
2023/07/15 01:56:41;;;;;;;34.37;19.60;;;;;;;;;;6209001;28;20469;-58
2023/07/15 01:59:41;;;;;;;33.77;18.93;;;;;;;;;;6205331;28;20044;-58
2023/07/15 02:02:43;;;;;;;33.90;19.33;;;;;;;;;;6210495;28;20409;-58
2023/07/15 02:05:44;;;;;;;32.95;20.08;;;;;;;;;;6211353;28;20125;-58
2023/07/15 02:08:45;;;;;;;33.63;20.03;;;;;;;;;;6198407;28;20081;-55
2023/07/15 02:11:47;;;;;;;37.97;20.38;;;;;;;;;;6197267;28;20049;-58
2023/07/15 02:14:47;;;;;;;32.80;19.42;;;;;;;;;;6195209;28;20083;-58
2023/07/15 02:17:48;;;;;;;33.08;19.95;;;;;;;;;;6197382;28;20512;-57
2023/07/15 02:20:49;;;;;;;31.50;20.03;;;;;;;;;;6195998;28;20062;-59
2023/07/15 02:23:53;;;;;;;35.78;20.83;;;;;;;;;;6195263;28;20130;-59
2023/07/15 02:26:53;;;;;;;40.97;21.90;;;;;;;;;;6197226;28;20050;-59
2023/07/15 02:29:54;;;;;;;34.13;20.17;;;;;;;;;;6197569;28;20529;-59
2023/07/15 02:32:55;;;;;;;33.23;20.70;;;;;;;;;;6196192;28;20042;-57
2023/07/15 02:35:55;;;;;;;37.80;20.03;;;;;;;;;;6196321;28;20050;-59
2023/07/15 02:38:56;;;;;;;38.30;20.20;;;;;;;;;;6196023;28;20050;-57
2023/07/15 02:41:57;;;;;;;32.67;20.27;;;;;;;;;;6196574;28;20034;-59
2023/07/15 02:44:57;;;;;;;35.83;20.57;;;;;;;;;;6198157;28;20057;-57
2023/07/15 02:47:58;;;;;;;32.53;20.47;;;;;;;;;;6197370;28;20042;-58
2023/07/15 02:50:58;;;;;;;33.67;20.58;;;;;;;;;;6197163;28;20096;-58
2023/07/15 02:54:02;;;;;;;39.10;21.67;;;;;;;;;;6198035;28;20046;-58
2023/07/15 02:57:03;;;;;;;37.50;21.98;;;;;;;;;;6199410;28;20500;-58
2023/07/15 03:00:10;;;;;;;33.87;20.73;;;;;;;;;;6192904;28;20516;-60
2023/07/15 03:03:10;;;;;;;36.17;22.05;;;;;;;;;;6194661;28;20457;-58
2023/07/15 03:06:12;;;;;;;38.77;21.63;;;;;;;;;;6197471;28;20069;-58
2023/07/15 03:09:12;;;;;;;39.75;22.45;;;;;;;;;;6196779;28;20046;-57
2023/07/15 03:12:13;;;;;;;39.33;21.50;;;;;;;;;;6194514;28;20049;-60
2023/07/15 03:15:14;;;;;;;38.03;21.90;;;;;;;;;;6198095;28;20061;-58
2023/07/15 03:18:15;;;;;;;39.85;21.92;;;;;;;;;;6195900;28;20042;-57
2023/07/15 03:21:15;;;;;;;34.07;21.10;;;;;;;;;;6196013;28;20049;-59
2023/07/15 03:24:16;;;;;;;35.50;21.07;;;;;;;;;;6196420;28;20046;-58
2023/07/15 03:27:16;;;;;;;35.63;21.20;;;;;;;;;;6197641;28;20034;-59
2023/07/15 03:30:18;;;;;;;41.50;22.00;;;;;;;;;;6195651;28;20480;-58
2023/07/15 03:33:18;;;;;;;38.25;21.60;;;;;;;;;;6199539;28;20475;-57
2023/07/15 03:36:20;;;;;;;38.23;22.17;;;;;;;;;;6208218;28;20046;-59
2023/07/15 03:39:21;;;;;;;40.43;22.03;;;;;;;;;;6216434;28;20133;-56
2023/07/15 03:42:21;;;;;;;40.33;22.88;;;;;;;;;;6201955;28;20295;-57
2023/07/15 03:45:22;;;;;;;37.00;22.00;;;;;;;;;;6200768;28;20357;-58
2023/07/15 03:48:23;;;;;;;35.90;21.43;;;;;;;;;;6198616;28;20456;-59
2023/07/15 03:51:24;;;;;;;39.33;21.23;;;;;;;;;;6197871;28;20452;-60
2023/07/15 03:54:24;;;;;;;38.92;22.50;;;;;;;;;;6200677;28;20047;-59
2023/07/15 03:57:25;;;;;;;36.63;22.10;;;;;;;;;;6199875;28;20049;-58
2023/07/15 04:00:26;;;;;;;42.00;24.02;;;;;;;;;;6196781;28;20589;-59
2023/07/15 04:03:27;;;;;;;39.73;23.40;;;;;;;;;;6199402;28;20495;-59
2023/07/15 04:06:27;;;;;;;43.53;23.87;;;;;;;;;;6197696;28;20493;-59
2023/07/15 04:09:28;;;;;;;43.43;24.03;;;;;;;;;;6199966;28;20050;-59
2023/07/15 04:12:29;;;;;;;42.50;25.27;;;;;;;;;;6198255;28;20065;-59
2023/07/15 04:15:30;;;;;;;42.07;24.83;;;;;;;;;;6199727;28;20437;-58
2023/07/15 04:18:31;;;;;;;45.65;25.58;;;;;;;;;;6200754;28;20470;-55
2023/07/15 04:21:31;;;;;;;44.50;25.17;;;;;;;;;;6199381;28;20046;-58
2023/07/15 04:24:33;;;;;;;41.67;24.20;;;;;;;;;;6199987;28;20050;-59
2023/07/15 04:27:34;;;;;;;43.42;25.17;;;;;;;;;;6201568;28;20049;-55
2023/07/15 04:30:35;;;;;;;42.70;25.20;;;;;;;;;;6197069;28;20042;-59
2023/07/15 04:33:35;;;;;;;44.20;24.93;;;;;;;;;;6198995;28;20570;-57
2023/07/15 04:36:36;;;;;;;45.23;24.20;;;;;;;;;;6194470;28;20105;-57
2023/07/15 04:39:36;;;;;;;52.33;24.87;;;;;;;;;;6199791;28;20074;-57
2023/07/15 04:42:37;;;;;;;40.37;24.63;;;;;;;;;;6199445;28;20078;-59
2023/07/15 04:45:38;;;;;;;42.70;24.23;;;;;;;;;;6199445;28;20406;-59
2023/07/15 04:48:39;;;;;;;44.20;25.20;;;;;;;;;;6198921;28;20305;-57
2023/07/15 04:51:39;;;;;;;46.57;25.67;;;;;;;;;;6200660;28;20049;-58
2023/07/15 04:54:40;;;;;;;48.07;24.67;;;;;;;;;;6199004;28;20509;-58
2023/07/15 04:57:41;;;;;;;41.60;23.20;;;;;;;;;;6193792;28;20046;-59
2023/07/15 05:00:42;;;;;;;37.47;22.55;;;;;;;;;;6196885;28;20199;-59
2023/07/15 05:03:43;;;;;;;43.45;24.52;;;;;;;;;;6194155;28;20462;-56
2023/07/15 05:06:43;;;;;;;39.23;22.83;;;;;;;;;;6197812;28;20046;-57
2023/07/15 05:09:45;;;;;;;41.23;23.37;;;;;;;;;;6194732;28;20050;-59
2023/07/15 05:12:46;;;;;;;37.00;22.20;;;;;;;;;;6195853;28;20049;-57
2023/07/15 05:15:46;;;;;;;35.57;22.17;;;;;;;;;;6197340;28;20508;-59
2023/07/15 05:18:47;;;;;;;40.50;22.33;;;;;;;;;;6193982;28;20043;-58
2023/07/15 05:21:48;;;;;;;41.77;22.07;;;;;;;;;;6190286;28;20048;-59
2023/07/15 05:24:49;;;;;;;40.90;23.17;;;;;;;;;;6195415;28;20123;-60
2023/07/15 05:27:50;;;;;;;40.67;22.45;;;;;;;;;;6209700;28;20068;-59
2023/07/15 05:30:50;;;;;;;39.30;22.30;;;;;;;;;;6196254;28;20405;-59
2023/07/15 05:33:51;;;;;;;36.70;21.90;;;;;;;;;;6200087;28;20060;-60
2023/07/15 05:36:51;;;;;;;42.43;22.80;;;;;;;;;;6194666;28;20515;-57
2023/07/15 05:39:52;;;;;;;42.23;22.77;;;;;;;;;;6195570;28;20046;-60
2023/07/15 05:42:53;;;;;;;41.23;22.60;;;;;;;;;;6198771;28;20138;-60
2023/07/15 05:45:53;;;;;;;35.90;21.60;;;;;;;;;;6195159;28;20050;-60
2023/07/15 05:48:55;;;;;;;39.03;21.17;;;;;;;;;;6198464;28;20405;-59
2023/07/15 05:51:55;;;;;;;38.67;21.33;;;;;;;;;;6196195;28;21158;-60
2023/07/15 05:54:56;;;;;;;40.40;21.47;;;;;;;;;;6195499;28;20046;-58
2023/07/15 05:57:57;;;;;;;37.20;20.73;;;;;;;;;;6198627;28;20375;-59
2023/07/15 06:00:58;;;;;;;43.30;22.70;;;;;;;;;;6196222;28;20042;-57
2023/07/15 06:03:59;;;;;;;36.67;21.13;;;;;;;;;;6194116;28;20097;-59
2023/07/15 06:06:59;;;;;;;32.80;19.77;;;;;;;;;;6190553;28;20165;-57
2023/07/15 06:10:00;;;;;;;37.40;20.80;;;;;;;;;;6195428;28;21310;-58
2023/07/15 06:13:01;;;;;;;35.57;20.23;;;;;;;;;;6196282;28;20116;-57
2023/07/15 06:16:01;;;;;;;33.37;19.57;;;;;;;;;;6198677;28;20410;-58
2023/07/15 06:19:02;;;;;;;32.43;18.87;;;;;;;;;;6199874;28;20531;-57
2023/07/15 06:22:03;;;;;;;35.67;19.03;;;;;;;;;;6196571;28;20476;-58
2023/07/15 06:25:04;;;;;;;32.40;18.80;;;;;;;;;;6198924;28;20455;-60
2023/07/15 06:28:05;;;;;;;35.25;18.80;;;;;;;;;;6196741;28;20045;-58
2023/07/15 06:31:09;;;;;;;31.73;18.48;;;;;;;;;;6195516;28;20035;-58
2023/07/15 06:34:10;;;;;;;32.70;17.80;;;;;;;;;;6194483;28;20681;-58
2023/07/15 06:37:10;;;;;;;34.08;18.08;;;;;;;;;;6201515;28;20072;-59
2023/07/15 06:40:11;;;;;;;28.03;17.83;;;;;;;;;;6203184;28;20055;-59
2023/07/15 06:43:12;;;;;;;34.92;18.75;;;;;;;;;;6202305;28;21272;-53
2023/07/15 06:46:12;;;;;;;32.03;18.10;;;;;;;;;;6217173;28;20061;-55
2023/07/15 06:49:13;;;;;;;31.73;17.77;;;;;;;;;;6216061;28;20042;-59
2023/07/15 06:52:14;;;;;;;27.40;16.27;;;;;;;;;;6216718;28;20046;-59
2023/07/15 06:55:14;;;;;;;26.13;16.83;;;;;;;;;;6217576;28;20049;-65
2023/07/15 06:58:15;;;;;;;26.83;16.53;;;;;;;;;;6203779;28;20046;-66
2023/07/15 07:01:15;;;;;;;26.97;15.70;;;;;;;;;;6214392;28;20073;-60
2023/07/15 07:04:16;;;;;;;26.43;15.67;;;;;;;;;;6203867;28;20050;-57
2023/07/15 07:07:22;;;;;;;23.90;14.60;;;;;;;;;;6202517;28;20429;-60
2023/07/15 07:10:22;;;;;;;28.08;15.60;;;;;;;;;;6219620;28;20045;-59
2023/07/15 07:13:23;;;;;;;24.30;15.13;;;;;;;;;;6205603;28;20103;-59
2023/07/15 07:16:24;;;;;;;22.23;14.23;;;;;;;;;;6218064;28;20584;-59
2023/07/15 07:19:24;;;;;;;28.23;14.63;;;;;;;;;;6211774;28;20077;-58
2023/07/15 07:22:25;;;;;;;20.40;13.20;;;;;;;;;;6204914;28;20088;-56
2023/07/15 07:25:25;;;;;;;21.83;14.20;;;;;;;;;;6199084;28;20796;-57
2023/07/15 07:28:44;;;;;;;22.40;13.70;;;;;;;;;;6198361;28;20393;-59
2023/07/15 07:31:44;;;;;;;23.65;14.23;;;;;;;;;;6193096;28;20509;-58
2023/07/15 07:34:45;;;;;;;21.27;14.17;;;;;;;;;;6199186;28;20050;-57
2023/07/15 07:37:46;;;;;;;23.30;14.55;;;;;;;;;;6199700;28;20514;-57
2023/07/15 07:40:47;;;;;;;25.60;13.83;;;;;;;;;;6198483;28;20044;-59
2023/07/15 07:43:47;;;;;;;22.08;14.05;;;;;;;;;;6208724;28;20144;-59
2023/07/15 07:46:48;;;;;;;22.80;13.33;;;;;;;;;;6194734;28;20420;-57
2023/07/15 07:49:49;;;;;;;22.40;13.30;;;;;;;;;;6196101;28;20052;-59
2023/07/15 07:52:50;;;;;;;23.27;13.45;;;;;;;;;;6196297;28;20046;-59
2023/07/15 07:55:51;;;;;;;19.00;12.87;;;;;;;;;;6197980;28;20112;-58
2023/07/15 07:58:57;;;;;;;19.83;12.55;;;;;;;;;;6206901;28;20372;-59
2023/07/15 08:01:57;;;;;;;19.95;13.50;;;;;;;;;;6205845;28;20054;-58
2023/07/15 08:04:58;;;;;;;20.10;12.83;;;;;;;;;;6196577;28;20043;-58
2023/07/15 08:07:59;;;;;;;19.93;12.60;;;;;;;;;;6198141;28;20160;-57
2023/07/15 08:10:59;;;;;;;20.63;12.90;;;;;;;;;;6196995;28;20042;-59
2023/07/15 08:14:00;;;;;;;23.43;13.53;;;;;;;;;;6197523;28;20056;-58
2023/07/15 08:17:00;;;;;;;20.00;12.43;;;;;;;;;;6218102;28;20421;-57
2023/07/15 08:20:02;;;;;;;18.58;12.35;;;;;;;;;;6199941;28;20407;-58
2023/07/15 08:23:03;;;;;;;;;;;;;;;;;;6196028;28;20141;-58
2023/07/15 08:26:04;;;;;;;19.10;12.45;;;;;;;;;;6198299;28;19984;-58
2023/07/15 08:29:04;;;;;;;17.97;11.80;;;;;;;;;;6198567;28;20045;-59
2023/07/15 08:32:06;;;;;;;22.13;11.60;;;;;;;;;;6194432;28;20089;-58
2023/07/15 08:35:06;;;;;;;19.23;11.52;;;;;;;;;;6195271;28;20311;-58
2023/07/15 08:38:07;;;;;;;21.08;11.90;;;;;;;;;;6198660;28;20046;-58
2023/07/15 08:41:09;;;;;;;17.80;11.70;;;;;;;;;;6197230;28;20050;-58
2023/07/15 08:44:10;;;;;;;20.95;11.93;;;;;;;;;;6198327;28;20350;-58
2023/07/15 08:47:14;;;;;;;21.50;12.18;;;;;;;;;;6197592;28;20038;-58
2023/07/15 08:50:17;;;;;;;16.88;12.32;;;;;;;;;;6198643;28;20144;-59
2023/07/15 08:53:25;;;;;;;21.02;11.88;;;;;;;;;;6195353;28;20100;-57
2023/07/15 08:56:27;;;;;;;16.23;10.95;;;;;;;;;;6197343;28;20137;-58
2023/07/15 08:59:28;;;;;;;16.65;10.27;;;;;;;;;;6197800;28;20042;-58
2023/07/15 09:02:28;;;;;;;17.38;10.00;;;;;;;;;;6192971;28;20911;-58
2023/07/15 09:05:29;;;;;;;14.67;9.23;;;;;;;;;;6193573;28;20050;-59
2023/07/15 09:08:30;;;;;;;14.93;9.33;;;;;;;;;;6196532;28;20096;-58
2023/07/15 09:11:41;;;;;;;13.60;9.47;;;;;;;;;;6196912;28;20296;-58
2023/07/15 09:14:43;;;;;;;16.65;9.95;;;;;;;;;;6198504;28;20054;-57
2023/07/15 09:17:51;;;;;;;13.90;8.88;;;;;;;;;;6195773;28;20042;-58
2023/07/15 09:21:16;;;;;;;11.93;8.13;;;;;;;;;;6197751;28;20045;-57
2023/07/15 09:24:16;;;;;;;15.43;8.93;;;;;;;;;;6193709;28;20050;-58
2023/07/15 09:27:17;;;;;;;14.70;9.02;;;;;;;;;;6198213;28;20042;-59
2023/07/15 09:30:18;;;;;;;13.13;9.13;;;;;;;;;;6195711;28;20050;-59
2023/07/15 09:33:32;;;;;;;15.80;9.75;;;;;;;;;;6197622;28;20100;-60
2023/07/15 09:36:32;;;;;;;15.25;9.68;;;;;;;;;;6196047;28;20467;-57
2023/07/15 09:39:33;;;;;;;13.98;9.27;;;;;;;;;;6195724;28;20054;-59
2023/07/15 09:42:53;;;;;;;12.33;8.60;;;;;;;;;;6195737;28;20052;-59
2023/07/15 09:45:54;;;;;;;13.20;9.18;;;;;;;;;;6195451;28;20046;-58
2023/07/15 09:48:56;;;;;;;14.17;9.57;;;;;;;;;;6195199;28;20062;-62
2023/07/15 09:51:58;;;;;;;14.73;9.60;;;;;;;;;;6193365;28;20042;-60
2023/07/15 09:54:59;;;;;;;14.85;9.48;;;;;;;;;;6196387;28;20046;-60
2023/07/15 09:58:20;;;;;;;15.85;9.50;;;;;;;;;;6193279;28;20053;-60
2023/07/15 10:01:25;;;;;;;13.73;9.27;;;;;;;;;;6196835;28;20077;-60
2023/07/15 10:04:31;;;;;;;13.02;9.45;;;;;;;;;;6195414;28;20046;-60
2023/07/15 10:07:32;;;;;;;15.38;9.30;;;;;;;;;;6204384;28;20442;-59
2023/07/15 10:10:33;;;;;;;14.35;9.82;;;;;;;;;;6204736;28;20053;-59
2023/07/15 10:13:34;;;;;;;13.50;9.30;;;;;;;;;;6203353;28;20056;-59
2023/07/15 10:16:36;;;;;;;13.45;9.35;;;;;;;;;;6202843;28;20169;-58
2023/07/15 10:19:39;;;;;;;13.25;8.80;;;;;;;;;;6208847;28;20085;-58
2023/07/15 10:22:41;;;;;;;13.10;9.02;;;;;;;;;;6208427;28;20060;-60
2023/07/15 10:25:42;;;;;;;16.58;9.27;;;;;;;;;;6207215;28;20050;-59
2023/07/15 10:28:43;;;;;;;12.35;9.10;;;;;;;;;;6204886;28;20128;-60
2023/07/15 10:32:14;;;;;;;12.38;9.00;;;;;;;;;;6205681;28;20056;-59
2023/07/15 10:35:18;;;;;;;12.87;9.17;;;;;;;;;;6205950;28;20058;-58
2023/07/15 10:38:19;;;;;;;15.27;9.60;;;;;;;;;;6205495;28;20041;-59
2023/07/15 10:41:20;;;;;;;13.65;10.15;;;;;;;;;;6199951;28;20523;-57
2023/07/15 10:44:22;;;;;;;16.77;9.93;;;;;;;;;;6199219;28;20051;-59
2023/07/15 10:47:23;;;;;;;14.60;8.82;;;;;;;;;;6199900;28;20137;-58
2023/07/15 10:50:24;;;;;;;12.30;8.67;;;;;;;;;;6196350;28;20053;-58
2023/07/15 10:53:27;;;;;;;12.35;9.43;;;;;;;;;;6201696;28;20821;-59
2023/07/15 10:56:28;;;;;;;14.52;9.13;;;;;;;;;;6201123;28;20149;-59
2023/07/15 10:59:41;;;;;;;16.77;9.02;;;;;;;;;;6196633;28;20050;-59
2023/07/15 11:02:42;;;;;;;15.10;9.38;;;;;;;;;;6198030;28;20137;-60
2023/07/15 11:05:43;;;;;;;14.45;9.48;;;;;;;;;;6198547;28;20057;-60
2023/07/15 11:08:44;;;;;;;15.83;9.23;;;;;;;;;;6199581;28;20481;-59
2023/07/15 11:11:45;;;;;;;14.73;9.00;;;;;;;;;;6196572;28;20338;-59
2023/07/15 11:14:46;;;;;;;;;;;;;;;;;;6196229;28;20050;-60
2023/07/15 11:17:46;;;;;;;12.37;9.30;;;;;;;;;;6181586;28;19929;-60
2023/07/15 11:20:48;;;;;;;13.63;9.37;;;;;;;;;;6192045;28;20061;-59
2023/07/15 11:23:49;;;;;;;14.85;9.77;;;;;;;;;;6197242;28;20115;-59
2023/07/15 11:26:50;;;;;;;15.40;9.30;;;;;;;;;;6200482;28;20101;-60
2023/07/15 11:29:59;;;;;;;14.90;9.77;;;;;;;;;;6197641;28;20321;-60
2023/07/15 11:32:59;;;;;;;16.25;9.45;;;;;;;;;;6197859;28;20188;-60
2023/07/15 11:36:00;;;;;;;15.82;9.63;;;;;;;;;;6199793;28;20177;-59
2023/07/15 11:39:01;;;;;;;12.80;9.40;;;;;;;;;;6198944;28;20068;-61
2023/07/15 11:42:04;;;;;;;13.35;9.30;;;;;;;;;;6192777;28;20761;-57
2023/07/15 11:45:05;;;;;;;14.25;9.70;;;;;;;;;;6203288;28;20069;-62
2023/07/15 11:48:06;;;;;;;19.10;9.52;;;;;;;;;;6198393;28;20413;-63
2023/07/15 11:51:09;;;;;;;14.20;9.77;;;;;;;;;;6193705;28;20129;-62
2023/07/15 11:54:12;;;;;;;11.90;9.30;;;;;;;;;;6201670;28;20058;-59
2023/07/15 11:57:23;;;;;;;13.32;9.55;;;;;;;;;;6200896;28;20065;-60
2023/07/15 12:00:25;;;;;;;;;;;;;;;;;;6198244;28;20065;-60
2023/07/15 12:03:26;;;;;;;13.23;9.20;;;;;;;;;;6198447;28;20297;-58
2023/07/15 12:06:28;;;;;;;15.57;9.65;;;;;;;;;;6200601;28;20522;-59
2023/07/15 12:09:29;;;;;;;13.25;9.35;;;;;;;;;;6201311;28;20100;-60
2023/07/15 12:12:29;;;;;;;13.50;9.15;;;;;;;;;;6198467;28;20145;-59
2023/07/15 12:15:30;;;;;;;13.33;9.03;;;;;;;;;;6195182;28;20060;-59
2023/07/15 12:18:30;;;;;;;13.98;9.25;;;;;;;;;;6196847;28;20733;-60
2023/07/15 12:21:31;;;;;;;15.80;9.15;;;;;;;;;;6195145;28;20050;-61
2023/07/15 12:24:33;;;;;;;16.52;9.30;;;;;;;;;;6200454;28;20054;-60
2023/07/15 12:27:34;;;;;;;13.90;9.05;;;;;;;;;;6200672;28;20200;-60
2023/07/15 12:30:34;;;;;;;;;;;;;;;;;;6196641;28;20046;-61
2023/07/15 12:33:35;;;;;;;20.77;9.33;;;;;;;;;;6196479;28;20395;-61
2023/07/15 12:36:36;;;;;;;;;;;;;;;;;;6197460;28;20060;-61
2023/07/15 12:39:36;;;;;;;11.57;8.37;;;;;;;;;;6195959;28;20381;-60
2023/07/15 12:42:39;;;;;;;12.55;9.02;;;;;;;;;;6195181;28;20050;-62
2023/07/15 12:45:40;;;;;;;12.20;8.80;;;;;;;;;;6200230;28;20058;-60
2023/07/15 12:48:41;;;;;;;12.88;9.18;;;;;;;;;;6196525;28;21534;-59
2023/07/15 12:51:42;;;;;;;;;;;;;;;;;;6191434;28;20050;-61
2023/07/15 12:54:43;;;;;;;13.87;9.63;;;;;;;;;;6199697;28;20358;-61
2023/07/15 12:57:46;;;;;;;11.68;8.60;;;;;;;;;;6202288;28;20064;-60
2023/07/15 13:00:47;;;;;;;12.65;8.55;;;;;;;;;;6195817;28;20056;-56
2023/07/15 13:03:48;;;;;;;10.90;8.32;;;;;;;;;;6194924;28;21301;-55
2023/07/15 13:06:48;;;;;;;;;;;;;;;;;;6198562;28;20046;-60
2023/07/15 13:09:49;;;;;;;10.23;7.93;;;;;;;;;;6200481;28;19929;-61
2023/07/15 13:12:50;;;;;;;;;;;;;;;;;;6193429;28;20077;-59
2023/07/15 13:15:50;;;;;;;14.97;8.90;;;;;;;;;;6198424;28;19925;-59
2023/07/15 13:18:51;;;;;;;11.88;8.52;;;;;;;;;;6198571;28;20049;-59
2023/07/15 13:21:52;;;;;;;;;;;;;;;;;;6192942;28;20058;-59
2023/07/15 13:24:53;;;;;;;13.10;8.45;;;;;;;;;;6196671;28;19941;-59
2023/07/15 13:27:54;;;;;;;;;;;;;;;;;;6196145;28;20165;-56
2023/07/15 13:30:54;;;;;;;12.33;9.00;;;;;;;;;;6194566;28;19926;-62
2023/07/15 13:33:55;;;;;;;;;;;;;;;;;;6202680;28;20058;-61
2023/07/15 13:36:56;;;;;;;12.80;8.53;;;;;;;;;;6197935;28;20287;-61
2023/07/15 13:39:56;;;;;;;;;;;;;;;;;;6199585;28;20050;-60
2023/07/15 13:42:57;;;;;;;12.43;8.37;;;;;;;;;;6193347;28;19959;-60
2023/07/15 13:45:58;;;;;;;;;;;;;;;;;;6194638;28;20081;-61
2023/07/15 13:48:58;;;;;;;13.50;9.17;;;;;;;;;;6194577;28;19936;-60
2023/07/15 13:51:59;;;;;;;;;;;;;;;;;;6190538;28;20548;-60
2023/07/15 13:55:00;;;;;;;10.88;8.63;;;;;;;;;;6194645;28;19934;-60
2023/07/15 13:58:00;;;;;;;;;;;;;;;;;;6194437;28;21047;-62
2023/07/15 14:01:02;;;;;;;13.97;8.53;;;;;;;;;;6193529;28;20379;-61
2023/07/15 14:04:02;;;;;;;13.40;8.77;;;;;;;;;;6198123;28;20053;-61
2023/07/15 14:07:03;;;;;;;;;;;;;;;;;;6197118;28;20050;-61
2023/07/15 14:10:04;;;;;;;13.07;9.13;;;;;;;;;;6199131;28;19948;-62
2023/07/15 14:13:05;;;;;;;14.13;9.05;;;;;;;;;;6194209;28;20062;-64
2023/07/15 14:16:05;;;;;;;12.77;8.63;;;;;;;;;;6198210;28;20041;-64
2023/07/15 14:19:06;;;;;;;;;;;;;;;;;;6196405;28;20041;-64
2023/07/15 14:22:06;;;;;;;13.40;8.50;;;;;;;;;;6194484;28;19929;-61
2023/07/15 14:25:07;;;;;;;;;;;;;;;;;;6195418;28;20486;-56
2023/07/15 14:28:08;;;;;;;13.33;8.20;;;;;;;;;;6195280;28;19976;-58
2023/07/15 14:31:08;;;;;;;;;;;;;;;;;;6194636;28;20394;-61
2023/07/15 14:34:09;;;;;;;11.63;8.70;;;;;;;;;;6197041;28;19921;-59
2023/07/15 14:37:10;;;;;;;;;;;;;;;;;;6199918;28;20644;-59
2023/07/15 14:40:12;;;;;;;13.33;8.87;;;;;;;;;;6197017;28;20356;-57
2023/07/15 14:43:12;;;;;;;11.75;8.20;;;;;;;;;;6199165;28;20046;-58
2023/07/15 14:46:13;;;;;;;13.13;8.80;;;;;;;;;;6195617;28;20054;-62
2023/07/15 14:49:13;;;;;;;;;;;;;;;;;;6197372;28;20058;-62
2023/07/15 14:52:14;;;;;;;11.17;8.07;;;;;;;;;;6197831;28;20000;-59
2023/07/15 14:55:15;;;;;;;;;;;;;;;;;;6194382;28;20053;-61
2023/07/15 14:58:15;;;;;;;10.73;8.20;;;;;;;;;;6197118;28;20414;-62
2023/07/15 15:01:16;;;;;;;11.32;8.15;;;;;;;;;;6196004;28;20096;-60
2023/07/15 15:04:17;;;;;;;;;;;;;;;;;;6196119;28;20050;-62
2023/07/15 15:07:17;;;;;;;11.82;8.63;;;;;;;;;;6196626;28;19928;-63
2023/07/15 15:10:18;;;;;;;14.27;8.68;;;;;;;;;;6203796;28;20042;-64
2023/07/15 15:13:18;;;;;;;9.27;7.95;;;;;;;;;;6205579;28;20085;-63
2023/07/15 15:16:19;;;;;;;12.88;7.93;;;;;;;;;;6195361;28;20525;-60
2023/07/15 15:19:20;;;;;;;12.90;8.07;;;;;;;;;;6210288;28;20050;-63
2023/07/15 15:22:20;;;;;;;12.05;7.85;;;;;;;;;;6207383;28;20038;-64
2023/07/15 15:25:21;;;;;;;12.13;7.95;;;;;;;;;;6196989;28;20057;-64
2023/07/15 15:28:22;;;;;;;11.73;7.70;;;;;;;;;;6199779;28;20092;-65
2023/07/15 15:31:23;;;;;;;10.27;7.80;;;;;;;;;;6196455;28;20038;-65
2023/07/15 15:34:23;;;;;;;12.98;8.23;;;;;;;;;;6196525;28;20156;-64
2023/07/15 15:37:24;;;;;;;11.52;8.45;;;;;;;;;;6197326;28;20046;-64
2023/07/15 15:40:24;;;;;;;11.85;8.20;;;;;;;;;;6195404;28;20045;-64
2023/07/15 15:43:25;;;;;;;10.82;8.02;;;;;;;;;;6197937;28;20064;-64
2023/07/15 15:46:25;;;;;;;10.32;8.13;;;;;;;;;;6196673;28;20101;-63
2023/07/15 15:49:26;;;;;;;11.52;8.05;;;;;;;;;;6197244;28;20038;-62
2023/07/15 15:52:27;;;;;;;11.40;7.82;;;;;;;;;;6195443;28;20498;-60
2023/07/15 15:55:27;;;;;;;12.23;8.40;;;;;;;;;;6198255;28;20108;-64
2023/07/15 15:58:28;;;;;;;11.70;7.80;;;;;;;;;;6199983;28;20057;-64
2023/07/15 16:01:30;;;;;;;11.35;7.70;;;;;;;;;;6215843;28;20580;-61
2023/07/15 16:04:30;;;;;;;10.23;7.97;;;;;;;;;;6202409;28;20053;-64
2023/07/15 16:07:31;;;;;;;10.85;7.80;;;;;;;;;;6197437;28;20408;-64
2023/07/15 16:10:32;;;;;;;11.82;7.45;;;;;;;;;;6196621;28;20061;-65
2023/07/15 16:13:33;;;;;;;13.00;7.68;;;;;;;;;;6196507;28;20091;-64
2023/07/15 16:16:33;;;;;;;12.10;8.00;;;;;;;;;;6200534;28;20050;-64
2023/07/15 16:19:34;;;;;;;11.05;7.45;;;;;;;;;;6197815;28;20050;-64
2023/07/15 16:22:35;;;;;;;11.80;7.75;;;;;;;;;;6195311;28;20054;-63
2023/07/15 16:25:35;;;;;;;11.70;7.82;;;;;;;;;;6197441;28;20354;-66
2023/07/15 16:28:36;;;;;;;9.80;7.25;;;;;;;;;;6196319;28;20060;-63
2023/07/15 16:31:37;;;;;;;10.27;7.30;;;;;;;;;;6193677;28;20137;-65
2023/07/15 16:34:37;;;;;;;10.63;7.80;;;;;;;;;;6198124;28;20050;-63
2023/07/15 16:37:38;;;;;;;12.65;8.23;;;;;;;;;;6208560;28;20473;-65
2023/07/15 16:40:39;;;;;;;12.13;8.10;;;;;;;;;;6210840;28;20057;-65
2023/07/15 16:43:39;;;;;;;11.15;8.30;;;;;;;;;;6204323;28;20365;-67
2023/07/15 16:46:40;;;;;;;12.48;8.07;;;;;;;;;;6210005;28;20488;-65
2023/07/15 16:49:42;;;;;;;11.18;8.43;;;;;;;;;;6210167;28;20486;-65
2023/07/15 16:52:43;;;;;;;11.07;8.88;;;;;;;;;;6205348;28;20108;-66
2023/07/15 16:55:43;;;;;;;13.60;9.40;;;;;;;;;;6207823;28;20490;-67
2023/07/15 16:58:44;;;;;;;15.40;9.63;;;;;;;;;;6217383;28;20045;-66
2023/07/15 17:01:45;;;;;;;11.02;8.63;;;;;;;;;;6205192;28;20089;-65
2023/07/15 17:04:45;;;;;;;12.07;8.75;;;;;;;;;;6199039;28;20453;-64
2023/07/15 17:07:46;;;;;;;11.55;8.75;;;;;;;;;;6199838;28;20092;-63
2023/07/15 17:10:46;;;;;;;12.80;9.63;;;;;;;;;;6197127;28;20050;-63
2023/07/15 17:13:47;;;;;;;11.60;8.80;;;;;;;;;;6197851;28;20145;-66
2023/07/15 17:16:47;;;;;;;13.10;9.50;;;;;;;;;;6196149;28;20053;-63
2023/07/15 17:19:48;;;;;;;11.35;8.60;;;;;;;;;;6197695;28;20042;-65
2023/07/15 17:22:48;;;;;;;14.35;9.20;;;;;;;;;;6198869;28;20049;-63
2023/07/15 17:25:49;;;;;;;14.63;10.70;;;;;;;;;;6197932;28;20053;-65
2023/07/15 17:28:50;;;;;;;15.52;10.48;;;;;;;;;;6197721;28;20050;-64
2023/07/15 17:31:51;;;;;;;14.00;9.75;;;;;;;;;;6207085;28;20536;-64
2023/07/15 17:34:51;;;;;;;16.02;10.27;;;;;;;;;;6198568;28;20058;-64
2023/07/15 17:37:52;;;;;;;18.33;11.55;;;;;;;;;;6198677;28;20104;-65
2023/07/15 17:40:53;;;;;;;17.92;10.10;;;;;;;;;;6196813;28;20050;-65
2023/07/15 17:43:53;;;;;;;12.30;9.00;;;;;;;;;;6199096;28;20046;-63
2023/07/15 17:46:54;;;;;;;13.45;8.80;;;;;;;;;;6199899;28;20054;-65
2023/07/15 17:49:55;;;;;;;13.43;9.70;;;;;;;;;;6206953;28;20054;-64
2023/07/15 17:52:55;;;;;;;14.95;9.35;;;;;;;;;;6195005;28;20501;-65